sensor_id;sensor_type;location;lat;lon;timestamp;temperature;humidity
26049;DHT22;13822;51.568;5.086;2023-04-24T00:02:29;9.70;99.90
26049;DHT22;13822;51.568;5.086;2023-04-24T00:08:35;9.70;99.90
26049;DHT22;13822;51.568;5.086;2023-04-24T00:14:12;9.70;99.90
26049;DHT22;13822;51.568;5.086;2023-04-24T00:20:09;9.70;99.90
26049;DHT22;13822;51.568;5.086;2023-04-24T00:25:30;9.70;99.90
26049;DHT22;13822;51.568;5.086;2023-04-24T00:30:49;9.70;99.90
26049;DHT22;13822;51.568;5.086;2023-04-24T00:36:11;9.70;99.90
26049;DHT22;13822;51.568;5.086;2023-04-24T00:41:27;9.70;99.90
26049;DHT22;13822;51.568;5.086;2023-04-24T00:46:51;9.70;99.90
26049;DHT22;13822;51.568;5.086;2023-04-24T00:52:17;9.70;99.90
26049;DHT22;13822;51.568;5.086;2023-04-24T03:00:52;8.90;99.90
26049;DHT22;13822;51.568;5.086;2023-04-24T03:12:30;8.80;99.90
26049;DHT22;13822;51.568;5.086;2023-04-24T03:18:25;8.80;99.90
26049;DHT22;13822;51.568;5.086;2023-04-24T03:24:02;8.80;99.90
26049;DHT22;13822;51.568;5.086;2023-04-24T03:29:36;8.80;99.90
26049;DHT22;13822;51.568;5.086;2023-04-24T04:30:26;8.60;99.90
26049;DHT22;13822;51.568;5.086;2023-04-24T04:35:30;8.60;99.90
26049;DHT22;13822;51.568;5.086;2023-04-24T04:40:33;8.60;99.90
26049;DHT22;13822;51.568;5.086;2023-04-24T04:45:36;8.60;99.90
26049;DHT22;13822;51.568;5.086;2023-04-24T04:50:40;8.60;99.90
26049;DHT22;13822;51.568;5.086;2023-04-24T04:55:42;8.50;99.90
26049;DHT22;13822;51.568;5.086;2023-04-24T05:00:44;8.50;99.90
26049;DHT22;13822;51.568;5.086;2023-04-24T05:05:47;8.50;99.90
26049;DHT22;13822;51.568;5.086;2023-04-24T05:10:49;8.50;99.90
26049;DHT22;13822;51.568;5.086;2023-04-24T05:15:52;8.50;99.90
26049;DHT22;13822;51.568;5.086;2023-04-24T05:20:57;8.40;99.90
26049;DHT22;13822;51.568;5.086;2023-04-24T05:25:59;8.40;99.90
26049;DHT22;13822;51.568;5.086;2023-04-24T05:31:01;8.40;99.90
26049;DHT22;13822;51.568;5.086;2023-04-24T05:36:03;8.30;99.90
26049;DHT22;13822;51.568;5.086;2023-04-24T05:41:06;8.30;99.90
26049;DHT22;13822;51.568;5.086;2023-04-24T05:46:08;8.30;99.90
26049;DHT22;13822;51.568;5.086;2023-04-24T05:51:11;8.30;99.90
26049;DHT22;13822;51.568;5.086;2023-04-24T05:56:12;8.30;99.90
26049;DHT22;13822;51.568;5.086;2023-04-24T06:01:14;8.20;99.90
26049;DHT22;13822;51.568;5.086;2023-04-24T06:06:17;8.20;99.90
26049;DHT22;13822;51.568;5.086;2023-04-24T06:11:19;8.20;99.90
26049;DHT22;13822;51.568;5.086;2023-04-24T06:16:21;8.20;99.90
26049;DHT22;13822;51.568;5.086;2023-04-24T06:21:23;8.20;99.90
26049;DHT22;13822;51.568;5.086;2023-04-24T06:26:25;8.10;99.90
26049;DHT22;13822;51.568;5.086;2023-04-24T06:31:28;8.10;99.90
26049;DHT22;13822;51.568;5.086;2023-04-24T06:36:30;8.10;99.90
26049;DHT22;13822;51.568;5.086;2023-04-24T06:41:32;8.10;99.90
26049;DHT22;13822;51.568;5.086;2023-04-24T06:46:34;8.10;99.90
26049;DHT22;13822;51.568;5.086;2023-04-24T06:51:36;8.10;99.90
26049;DHT22;13822;51.568;5.086;2023-04-24T06:56:39;8.10;99.90
26049;DHT22;13822;51.568;5.086;2023-04-24T07:01:41;8.10;99.90
26049;DHT22;13822;51.568;5.086;2023-04-24T07:06:44;8.20;99.90
26049;DHT22;13822;51.568;5.086;2023-04-24T07:11:47;8.20;99.90
26049;DHT22;13822;51.568;5.086;2023-04-24T07:16:49;8.10;99.90
26049;DHT22;13822;51.568;5.086;2023-04-24T07:21:51;8.10;99.90
26049;DHT22;13822;51.568;5.086;2023-04-24T07:26:55;8.00;99.90
26049;DHT22;13822;51.568;5.086;2023-04-24T07:31:57;8.00;99.90
26049;DHT22;13822;51.568;5.086;2023-04-24T07:36:59;8.00;99.90
26049;DHT22;13822;51.568;5.086;2023-04-24T07:42:01;8.10;99.90
26049;DHT22;13822;51.568;5.086;2023-04-24T07:47:03;8.00;99.90
26049;DHT22;13822;51.568;5.086;2023-04-24T07:52:05;8.10;99.90
26049;DHT22;13822;51.568;5.086;2023-04-24T07:57:07;8.10;99.90
26049;DHT22;13822;51.568;5.086;2023-04-24T08:02:09;8.10;99.90
26049;DHT22;13822;51.568;5.086;2023-04-24T08:07:12;8.10;99.90
26049;DHT22;13822;51.568;5.086;2023-04-24T08:12:14;8.10;99.90
26049;DHT22;13822;51.568;5.086;2023-04-24T08:17:17;8.10;99.90
26049;DHT22;13822;51.568;5.086;2023-04-24T08:22:19;8.10;99.90
26049;DHT22;13822;51.568;5.086;2023-04-24T08:27:21;8.10;99.90
26049;DHT22;13822;51.568;5.086;2023-04-24T08:32:23;8.20;99.90
26049;DHT22;13822;51.568;5.086;2023-04-24T08:37:26;8.30;99.90
26049;DHT22;13822;51.568;5.086;2023-04-24T08:42:28;8.40;99.90
26049;DHT22;13822;51.568;5.086;2023-04-24T08:47:34;8.30;99.90
26049;DHT22;13822;51.568;5.086;2023-04-24T08:52:36;8.20;99.90
26049;DHT22;13822;51.568;5.086;2023-04-24T08:57:38;8.10;99.90
26049;DHT22;13822;51.568;5.086;2023-04-24T09:02:42;8.10;99.90
26049;DHT22;13822;51.568;5.086;2023-04-24T09:07:53;8.20;99.90
26049;DHT22;13822;51.568;5.086;2023-04-24T09:12:56;8.20;99.90
26049;DHT22;13822;51.568;5.086;2023-04-24T09:17:59;8.10;99.90
26049;DHT22;13822;51.568;5.086;2023-04-24T09:23:02;8.10;99.90
26049;DHT22;13822;51.568;5.086;2023-04-24T09:28:04;8.10;99.90
26049;DHT22;13822;51.568;5.086;2023-04-24T09:33:14;7.90;99.90
26049;DHT22;13822;51.568;5.086;2023-04-24T09:38:17;8.00;99.90
26049;DHT22;13822;51.568;5.086;2023-04-24T09:43:19;8.10;99.90
26049;DHT22;13822;51.568;5.086;2023-04-24T09:48:29;8.30;99.90
26049;DHT22;13822;51.568;5.086;2023-04-24T09:53:32;8.60;99.90
26049;DHT22;13822;51.568;5.086;2023-04-24T09:58:35;8.80;99.90
26049;DHT22;13822;51.568;5.086;2023-04-24T10:03:37;8.70;99.90
26049;DHT22;13822;51.568;5.086;2023-04-24T10:08:39;8.60;99.90
26049;DHT22;13822;51.568;5.086;2023-04-24T10:13:41;8.40;99.90
26049;DHT22;13822;51.568;5.086;2023-04-24T10:18:43;8.20;99.90
26049;DHT22;13822;51.568;5.086;2023-04-24T10:23:46;8.10;99.90
26049;DHT22;13822;51.568;5.086;2023-04-24T10:28:48;8.20;99.90
26049;DHT22;13822;51.568;5.086;2023-04-24T10:33:50;8.20;99.90
26049;DHT22;13822;51.568;5.086;2023-04-24T10:38:54;8.30;99.90
26049;DHT22;13822;51.568;5.086;2023-04-24T10:44:06;8.40;99.90
26049;DHT22;13822;51.568;5.086;2023-04-24T10:49:12;8.50;99.90
26049;DHT22;13822;51.568;5.086;2023-04-24T10:54:27;8.50;99.90
26049;DHT22;13822;51.568;5.086;2023-04-24T10:59:34;8.40;99.90
26049;DHT22;13822;51.568;5.086;2023-04-24T11:04:36;8.40;99.90
26049;DHT22;13822;51.568;5.086;2023-04-24T11:09:38;8.30;99.90
26049;DHT22;13822;51.568;5.086;2023-04-24T11:20:00;8.30;99.90
26049;DHT22;13822;51.568;5.086;2023-04-24T11:25:25;8.40;99.90
26049;DHT22;13822;51.568;5.086;2023-04-24T11:30:33;8.50;99.90
26049;DHT22;13822;51.568;5.086;2023-04-24T11:35:36;8.60;99.90
26049;DHT22;13822;51.568;5.086;2023-04-24T11:40:41;8.70;99.90
26049;DHT22;13822;51.568;5.086;2023-04-24T11:45:47;8.80;99.90
26049;DHT22;13822;51.568;5.086;2023-04-24T11:50:50;8.90;99.90
26049;DHT22;13822;51.568;5.086;2023-04-24T11:55:52;9.10;99.90
26049;DHT22;13822;51.568;5.086;2023-04-24T12:00:57;9.10;99.90
26049;DHT22;13822;51.568;5.086;2023-04-24T12:06:06;9.10;99.90
26049;DHT22;13822;51.568;5.086;2023-04-24T12:11:09;9.10;99.90
26049;DHT22;13822;51.568;5.086;2023-04-24T12:16:12;9.20;99.90
26049;DHT22;13822;51.568;5.086;2023-04-24T12:26:28;9.30;99.90
26049;DHT22;13822;51.568;5.086;2023-04-24T12:31:30;9.70;99.90
26049;DHT22;13822;51.568;5.086;2023-04-24T12:36:34;10.30;99.90
26049;DHT22;13822;51.568;5.086;2023-04-24T12:41:36;10.50;99.90
26049;DHT22;13822;51.568;5.086;2023-04-24T12:46:38;10.50;99.90
26049;DHT22;13822;51.568;5.086;2023-04-24T12:51:40;10.10;99.90
26049;DHT22;13822;51.568;5.086;2023-04-24T12:56:42;9.70;99.90
26049;DHT22;13822;51.568;5.086;2023-04-24T13:01:44;9.70;99.90
26049;DHT22;13822;51.568;5.086;2023-04-24T13:06:46;9.70;99.90
26049;DHT22;13822;51.568;5.086;2023-04-24T13:11:48;10.10;99.90
26049;DHT22;13822;51.568;5.086;2023-04-24T13:16:51;10.30;99.90
26049;DHT22;13822;51.568;5.086;2023-04-24T13:21:54;10.40;99.90
26049;DHT22;13822;51.568;5.086;2023-04-24T13:26:57;10.40;99.90
26049;DHT22;13822;51.568;5.086;2023-04-24T13:31:59;10.10;99.90
26049;DHT22;13822;51.568;5.086;2023-04-24T13:37:01;10.00;99.90
26049;DHT22;13822;51.568;5.086;2023-04-24T13:42:05;10.10;99.90
26049;DHT22;13822;51.568;5.086;2023-04-24T13:47:07;9.80;99.90
26049;DHT22;13822;51.568;5.086;2023-04-24T13:52:09;9.60;99.90
26049;DHT22;13822;51.568;5.086;2023-04-24T13:57:13;9.50;99.90
26049;DHT22;13822;51.568;5.086;2023-04-24T14:02:15;9.60;99.90
26049;DHT22;13822;51.568;5.086;2023-04-24T14:07:17;9.60;99.90
26049;DHT22;13822;51.568;5.086;2023-04-24T14:12:19;9.60;99.90
26049;DHT22;13822;51.568;5.086;2023-04-24T14:17:21;10.30;99.90
26049;DHT22;13822;51.568;5.086;2023-04-24T14:22:23;10.70;99.90
26049;DHT22;13822;51.568;5.086;2023-04-24T14:27:25;10.80;99.90
26049;DHT22;13822;51.568;5.086;2023-04-24T14:32:28;11.10;99.90
26049;DHT22;13822;51.568;5.086;2023-04-24T14:37:30;11.60;99.90
26049;DHT22;13822;51.568;5.086;2023-04-24T14:42:32;11.70;99.90
26049;DHT22;13822;51.568;5.086;2023-04-24T14:47:34;12.10;99.90
26049;DHT22;13822;51.568;5.086;2023-04-24T14:52:37;12.50;99.90
26049;DHT22;13822;51.568;5.086;2023-04-24T14:57:39;12.60;99.90
26049;DHT22;13822;51.568;5.086;2023-04-24T15:02:41;12.90;99.90
26049;DHT22;13822;51.568;5.086;2023-04-24T15:07:43;13.20;99.90
26049;DHT22;13822;51.568;5.086;2023-04-24T15:12:46;13.00;99.90
26049;DHT22;13822;51.568;5.086;2023-04-24T15:17:48;12.40;99.90
26049;DHT22;13822;51.568;5.086;2023-04-24T15:22:50;11.90;99.90
26049;DHT22;13822;51.568;5.086;2023-04-24T15:27:52;11.50;99.90
26049;DHT22;13822;51.568;5.086;2023-04-24T15:32:54;11.90;99.90
26049;DHT22;13822;51.568;5.086;2023-04-24T15:37:56;12.50;99.90
26049;DHT22;13822;51.568;5.086;2023-04-24T15:42:58;12.40;99.90
26049;DHT22;13822;51.568;5.086;2023-04-24T15:48:00;12.10;99.90
26049;DHT22;13822;51.568;5.086;2023-04-24T15:53:02;11.60;99.90
26049;DHT22;13822;51.568;5.086;2023-04-24T15:58:04;11.30;99.90
26049;DHT22;13822;51.568;5.086;2023-04-24T16:03:06;11.00;99.90
26049;DHT22;13822;51.568;5.086;2023-04-24T16:08:10;11.00;99.90
26049;DHT22;13822;51.568;5.086;2023-04-24T16:13:14;11.10;99.90
26049;DHT22;13822;51.568;5.086;2023-04-24T16:18:19;11.10;99.90
26049;DHT22;13822;51.568;5.086;2023-04-24T16:23:20;11.00;99.90
26049;DHT22;13822;51.568;5.086;2023-04-24T16:28:22;10.90;99.90
26049;DHT22;13822;51.568;5.086;2023-04-24T16:33:24;10.80;99.90
26049;DHT22;13822;51.568;5.086;2023-04-24T16:38:27;10.70;99.90
26049;DHT22;13822;51.568;5.086;2023-04-24T16:43:28;10.70;99.90
26049;DHT22;13822;51.568;5.086;2023-04-24T16:48:31;10.80;99.90
26049;DHT22;13822;51.568;5.086;2023-04-24T16:53:33;10.90;99.90
26049;DHT22;13822;51.568;5.086;2023-04-24T16:58:35;10.70;99.90
26049;DHT22;13822;51.568;5.086;2023-04-24T17:03:37;10.60;99.90
26049;DHT22;13822;51.568;5.086;2023-04-24T17:08:39;10.50;99.90
26049;DHT22;13822;51.568;5.086;2023-04-24T17:13:41;10.60;99.90
26049;DHT22;13822;51.568;5.086;2023-04-24T17:18:43;10.50;99.90
26049;DHT22;13822;51.568;5.086;2023-04-24T17:23:45;10.40;99.90
26049;DHT22;13822;51.568;5.086;2023-04-24T17:28:47;10.30;99.90
26049;DHT22;13822;51.568;5.086;2023-04-24T17:33:49;10.30;99.90
26049;DHT22;13822;51.568;5.086;2023-04-24T17:38:54;10.20;99.90
26049;DHT22;13822;51.568;5.086;2023-04-24T17:43:56;10.20;99.90
26049;DHT22;13822;51.568;5.086;2023-04-24T17:48:58;10.10;99.90
26049;DHT22;13822;51.568;5.086;2023-04-24T17:54:00;10.00;99.90
26049;DHT22;13822;51.568;5.086;2023-04-24T17:59:02;9.90;99.90
26049;DHT22;13822;51.568;5.086;2023-04-24T18:04:04;9.70;99.90
26049;DHT22;13822;51.568;5.086;2023-04-24T18:09:06;9.60;99.90
26049;DHT22;13822;51.568;5.086;2023-04-24T18:14:09;9.50;99.90
26049;DHT22;13822;51.568;5.086;2023-04-24T18:19:10;9.40;99.90
26049;DHT22;13822;51.568;5.086;2023-04-24T18:24:12;9.30;99.90
26049;DHT22;13822;51.568;5.086;2023-04-24T18:29:14;9.20;99.90
26049;DHT22;13822;51.568;5.086;2023-04-24T18:34:16;9.10;99.90
26049;DHT22;13822;51.568;5.086;2023-04-24T18:39:18;9.00;99.90
26049;DHT22;13822;51.568;5.086;2023-04-24T18:44:23;8.90;99.90
26049;DHT22;13822;51.568;5.086;2023-04-24T18:49:26;8.80;99.90
26049;DHT22;13822;51.568;5.086;2023-04-24T18:54:28;8.70;99.90
26049;DHT22;13822;51.568;5.086;2023-04-24T18:59:30;8.60;99.90
26049;DHT22;13822;51.568;5.086;2023-04-24T19:04:32;8.60;99.90
26049;DHT22;13822;51.568;5.086;2023-04-24T19:09:34;8.50;99.90
26049;DHT22;13822;51.568;5.086;2023-04-24T19:14:37;8.40;99.90
26049;DHT22;13822;51.568;5.086;2023-04-24T19:19:39;8.40;99.90
26049;DHT22;13822;51.568;5.086;2023-04-24T19:24:41;8.40;99.90
26049;DHT22;13822;51.568;5.086;2023-04-24T19:30:08;8.30;99.90
26049;DHT22;13822;51.568;5.086;2023-04-24T19:48:23;8.20;99.90
26049;DHT22;13822;51.568;5.086;2023-04-24T19:53:40;8.10;99.90
26049;DHT22;13822;51.568;5.086;2023-04-24T20:04:30;8.00;99.90
26049;DHT22;13822;51.568;5.086;2023-04-24T20:10:29;8.00;99.90
26049;DHT22;13822;51.568;5.086;2023-04-24T20:16:15;7.90;99.90
26049;DHT22;13822;51.568;5.086;2023-04-24T20:22:08;7.80;99.90
26049;DHT22;13822;51.568;5.086;2023-04-24T20:27:41;7.80;99.90
26049;DHT22;13822;51.568;5.086;2023-04-24T20:33:35;7.70;99.90
26049;DHT22;13822;51.568;5.086;2023-04-24T20:39:24;7.60;99.90
26049;DHT22;13822;51.568;5.086;2023-04-24T20:50:33;7.50;99.90
26049;DHT22;13822;51.568;5.086;2023-04-24T20:56:00;7.50;99.90
26049;DHT22;13822;51.568;5.086;2023-04-24T21:01:32;7.40;99.90
26049;DHT22;13822;51.568;5.086;2023-04-24T21:07:08;7.40;99.90
26049;DHT22;13822;51.568;5.086;2023-04-24T21:12:27;7.30;99.90
26049;DHT22;13822;51.568;5.086;2023-04-24T21:18:14;7.20;99.90
26049;DHT22;13822;51.568;5.086;2023-04-24T21:23:27;7.20;99.90
26049;DHT22;13822;51.568;5.086;2023-04-24T21:28:38;7.20;99.90
26049;DHT22;13822;51.568;5.086;2023-04-24T21:34:46;7.10;99.90
26049;DHT22;13822;51.568;5.086;2023-04-24T21:40:17;7.10;99.90
26049;DHT22;13822;51.568;5.086;2023-04-24T21:45:54;7.00;99.90
26049;DHT22;13822;51.568;5.086;2023-04-24T21:51:12;7.10;99.90
26049;DHT22;13822;51.568;5.086;2023-04-24T21:56:36;7.00;99.90
26049;DHT22;13822;51.568;5.086;2023-04-24T22:02:07;7.10;99.90
26049;DHT22;13822;51.568;5.086;2023-04-24T22:07:26;7.00;99.90
26049;DHT22;13822;51.568;5.086;2023-04-24T22:13:13;7.00;99.90
26049;DHT22;13822;51.568;5.086;2023-04-24T22:18:18;7.10;99.90
26049;DHT22;13822;51.568;5.086;2023-04-24T22:23:47;7.10;99.90
26049;DHT22;13822;51.568;5.086;2023-04-24T22:29:00;7.10;99.90
26049;DHT22;13822;51.568;5.086;2023-04-24T22:34:09;7.10;99.90
26049;DHT22;13822;51.568;5.086;2023-04-24T22:39:40;7.10;99.90
26049;DHT22;13822;51.568;5.086;2023-04-24T22:44:58;7.10;99.90
26049;DHT22;13822;51.568;5.086;2023-04-24T22:50:33;7.10;99.90
26049;DHT22;13822;51.568;5.086;2023-04-24T22:56:04;7.10;99.90
26049;DHT22;13822;51.568;5.086;2023-04-24T23:01:35;7.10;99.90
26049;DHT22;13822;51.568;5.086;2023-04-24T23:06:50;7.10;99.90
26049;DHT22;13822;51.568;5.086;2023-04-24T23:23:41;7.10;99.90
26049;DHT22;13822;51.568;5.086;2023-04-24T23:29:30;7.20;99.90
26049;DHT22;13822;51.568;5.086;2023-04-24T23:35:01;7.10;99.90
26049;DHT22;13822;51.568;5.086;2023-04-24T23:40:09;7.10;99.90
26049;DHT22;13822;51.568;5.086;2023-04-24T23:45:34;7.10;99.90
26049;DHT22;13822;51.568;5.086;2023-04-24T23:51:07;7.20;99.90
26049;DHT22;13822;51.568;5.086;2023-04-24T23:56:14;7.10;99.90
